sensor_id;sensor_type;location;lat;lon;timestamp;temperature;humidity
2721;DHT22;1368;49.484;11.112;2022-08-30T00:00:38;17.30;99.90
2721;DHT22;1368;49.484;11.112;2022-08-30T00:03:22;17.20;99.90
2721;DHT22;1368;49.484;11.112;2022-08-30T00:05:48;17.40;99.90
2721;DHT22;1368;49.484;11.112;2022-08-30T00:08:15;17.40;99.90
2721;DHT22;1368;49.484;11.112;2022-08-30T00:10:41;17.40;99.90
2721;DHT22;1368;49.484;11.112;2022-08-30T00:13:08;17.40;99.90
2721;DHT22;1368;49.484;11.112;2022-08-30T00:15:37;17.30;99.90
2721;DHT22;1368;49.484;11.112;2022-08-30T00:18:03;17.20;99.90
2721;DHT22;1368;49.484;11.112;2022-08-30T00:20:31;17.10;99.90
2721;DHT22;1368;49.484;11.112;2022-08-30T00:22:58;17.10;99.90
2721;DHT22;1368;49.484;11.112;2022-08-30T00:25:24;17.00;99.90
2721;DHT22;1368;49.484;11.112;2022-08-30T00:27:50;17.00;99.90
2721;DHT22;1368;49.484;11.112;2022-08-30T00:30:17;16.90;99.90
2721;DHT22;1368;49.484;11.112;2022-08-30T00:32:43;16.90;99.90
2721;DHT22;1368;49.484;11.112;2022-08-30T00:35:10;17.00;99.90
2721;DHT22;1368;49.484;11.112;2022-08-30T00:37:36;16.80;99.90
2721;DHT22;1368;49.484;11.112;2022-08-30T00:40:03;16.70;99.90
2721;DHT22;1368;49.484;11.112;2022-08-30T00:42:31;16.70;99.90
2721;DHT22;1368;49.484;11.112;2022-08-30T00:44:57;16.70;99.90
2721;DHT22;1368;49.484;11.112;2022-08-30T00:47:23;16.70;99.90
2721;DHT22;1368;49.484;11.112;2022-08-30T00:49:51;17.10;99.90
2721;DHT22;1368;49.484;11.112;2022-08-30T00:52:18;16.60;99.90
2721;DHT22;1368;49.484;11.112;2022-08-30T00:54:46;16.60;99.90
2721;DHT22;1368;49.484;11.112;2022-08-30T00:57:13;16.50;99.90
2721;DHT22;1368;49.484;11.112;2022-08-30T00:59:42;16.50;99.90
2721;DHT22;1368;49.484;11.112;2022-08-30T01:02:08;16.40;99.90
2721;DHT22;1368;49.484;11.112;2022-08-30T01:04:35;16.40;99.90
2721;DHT22;1368;49.484;11.112;2022-08-30T01:07:02;16.40;99.90
2721;DHT22;1368;49.484;11.112;2022-08-30T01:09:27;16.40;99.90
2721;DHT22;1368;49.484;11.112;2022-08-30T01:11:54;16.30;99.90
2721;DHT22;1368;49.484;11.112;2022-08-30T01:14:21;16.30;99.90
2721;DHT22;1368;49.484;11.112;2022-08-30T01:16:48;16.30;99.90
2721;DHT22;1368;49.484;11.112;2022-08-30T01:19:27;16.20;99.90
2721;DHT22;1368;49.484;11.112;2022-08-30T01:22:00;16.20;99.90
2721;DHT22;1368;49.484;11.112;2022-08-30T01:24:28;16.10;99.90
2721;DHT22;1368;49.484;11.112;2022-08-30T01:26:54;16.10;99.90
2721;DHT22;1368;49.484;11.112;2022-08-30T01:29:21;16.10;99.90
2721;DHT22;1368;49.484;11.112;2022-08-30T01:31:49;16.00;99.90
2721;DHT22;1368;49.484;11.112;2022-08-30T01:34:15;16.00;99.90
2721;DHT22;1368;49.484;11.112;2022-08-30T01:36:43;16.00;99.90
2721;DHT22;1368;49.484;11.112;2022-08-30T01:39:11;16.00;99.90
2721;DHT22;1368;49.484;11.112;2022-08-30T01:41:37;16.00;99.90
2721;DHT22;1368;49.484;11.112;2022-08-30T01:44:08;16.00;99.90
2721;DHT22;1368;49.484;11.112;2022-08-30T01:46:38;16.00;99.90
2721;DHT22;1368;49.484;11.112;2022-08-30T01:49:09;15.90;99.90
2721;DHT22;1368;49.484;11.112;2022-08-30T01:51:35;15.80;99.90
2721;DHT22;1368;49.484;11.112;2022-08-30T01:54:00;15.80;99.90
2721;DHT22;1368;49.484;11.112;2022-08-30T01:56:27;15.80;99.90
2721;DHT22;1368;49.484;11.112;2022-08-30T01:58:54;15.80;99.90
2721;DHT22;1368;49.484;11.112;2022-08-30T02:01:23;15.80;99.90
2721;DHT22;1368;49.484;11.112;2022-08-30T02:03:50;15.80;99.90
2721;DHT22;1368;49.484;11.112;2022-08-30T02:06:19;15.80;99.90
2721;DHT22;1368;49.484;11.112;2022-08-30T02:08:45;15.70;99.90
2721;DHT22;1368;49.484;11.112;2022-08-30T02:11:11;15.60;99.90
2721;DHT22;1368;49.484;11.112;2022-08-30T02:13:38;15.70;99.90
2721;DHT22;1368;49.484;11.112;2022-08-30T02:16:06;15.80;99.90
2721;DHT22;1368;49.484;11.112;2022-08-30T02:18:34;15.60;99.90
2721;DHT22;1368;49.484;11.112;2022-08-30T02:21:00;15.60;99.90
2721;DHT22;1368;49.484;11.112;2022-08-30T02:23:26;15.60;99.90
2721;DHT22;1368;49.484;11.112;2022-08-30T02:25:52;15.60;99.90
2721;DHT22;1368;49.484;11.112;2022-08-30T02:28:17;15.60;99.90
2721;DHT22;1368;49.484;11.112;2022-08-30T02:30:45;15.50;99.90
2721;DHT22;1368;49.484;11.112;2022-08-30T02:33:11;15.50;99.90
2721;DHT22;1368;49.484;11.112;2022-08-30T02:35:36;15.50;99.90
2721;DHT22;1368;49.484;11.112;2022-08-30T02:38:02;15.40;99.90
2721;DHT22;1368;49.484;11.112;2022-08-30T02:40:28;15.40;99.90
2721;DHT22;1368;49.484;11.112;2022-08-30T02:42:54;15.40;99.90
2721;DHT22;1368;49.484;11.112;2022-08-30T02:45:20;15.40;99.90
2721;DHT22;1368;49.484;11.112;2022-08-30T02:47:45;15.30;99.90
2721;DHT22;1368;49.484;11.112;2022-08-30T02:50:11;15.20;99.90
2721;DHT22;1368;49.484;11.112;2022-08-30T02:52:37;15.20;99.90
2721;DHT22;1368;49.484;11.112;2022-08-30T02:55:05;15.20;99.90
2721;DHT22;1368;49.484;11.112;2022-08-30T02:57:31;15.20;99.90
2721;DHT22;1368;49.484;11.112;2022-08-30T02:59:56;15.30;99.90
2721;DHT22;1368;49.484;11.112;2022-08-30T03:02:24;15.30;99.90
2721;DHT22;1368;49.484;11.112;2022-08-30T03:04:50;15.60;99.90
2721;DHT22;1368;49.484;11.112;2022-08-30T03:07:16;15.70;99.90
2721;DHT22;1368;49.484;11.112;2022-08-30T03:09:42;15.20;99.90
2721;DHT22;1368;49.484;11.112;2022-08-30T03:12:08;15.30;99.90
2721;DHT22;1368;49.484;11.112;2022-08-30T03:14:36;15.20;99.90
2721;DHT22;1368;49.484;11.112;2022-08-30T03:17:07;15.10;99.90
2721;DHT22;1368;49.484;11.112;2022-08-30T03:19:33;15.10;99.90
2721;DHT22;1368;49.484;11.112;2022-08-30T03:22:01;15.00;99.90
2721;DHT22;1368;49.484;11.112;2022-08-30T03:24:26;15.00;99.90
2721;DHT22;1368;49.484;11.112;2022-08-30T03:26:52;15.00;99.90
2721;DHT22;1368;49.484;11.112;2022-08-30T03:29:17;14.90;99.90
2721;DHT22;1368;49.484;11.112;2022-08-30T03:31:43;14.90;99.90
2721;DHT22;1368;49.484;11.112;2022-08-30T03:34:09;14.90;99.90
2721;DHT22;1368;49.484;11.112;2022-08-30T03:36:39;14.90;99.90
2721;DHT22;1368;49.484;11.112;2022-08-30T03:39:06;14.90;99.90
2721;DHT22;1368;49.484;11.112;2022-08-30T03:41:33;15.00;99.90
2721;DHT22;1368;49.484;11.112;2022-08-30T03:43:59;14.80;99.90
2721;DHT22;1368;49.484;11.112;2022-08-30T03:46:25;14.80;99.90
2721;DHT22;1368;49.484;11.112;2022-08-30T03:48:51;14.80;99.90
2721;DHT22;1368;49.484;11.112;2022-08-30T03:51:23;15.40;99.90
2721;DHT22;1368;49.484;11.112;2022-08-30T03:53:49;14.80;99.90
2721;DHT22;1368;49.484;11.112;2022-08-30T03:56:16;14.80;99.90
2721;DHT22;1368;49.484;11.112;2022-08-30T03:58:42;14.80;99.90
2721;DHT22;1368;49.484;11.112;2022-08-30T04:01:08;14.80;99.90
2721;DHT22;1368;49.484;11.112;2022-08-30T04:03:33;14.80;99.90
2721;DHT22;1368;49.484;11.112;2022-08-30T04:06:00;14.80;99.90
2721;DHT22;1368;49.484;11.112;2022-08-30T04:08:26;14.80;99.90
2721;DHT22;1368;49.484;11.112;2022-08-30T04:10:52;14.80;99.90
2721;DHT22;1368;49.484;11.112;2022-08-30T04:13:19;14.80;99.90
2721;DHT22;1368;49.484;11.112;2022-08-30T04:15:45;14.70;99.90
2721;DHT22;1368;49.484;11.112;2022-08-30T04:18:11;14.70;99.90
2721;DHT22;1368;49.484;11.112;2022-08-30T04:20:37;14.60;99.90
2721;DHT22;1368;49.484;11.112;2022-08-30T04:23:04;14.60;99.90
2721;DHT22;1368;49.484;11.112;2022-08-30T04:25:32;14.60;99.90
2721;DHT22;1368;49.484;11.112;2022-08-30T04:27:58;14.70;99.90
2721;DHT22;1368;49.484;11.112;2022-08-30T04:30:24;14.60;99.90
2721;DHT22;1368;49.484;11.112;2022-08-30T04:32:49;14.60;99.90
2721;DHT22;1368;49.484;11.112;2022-08-30T04:35:15;14.60;99.90
2721;DHT22;1368;49.484;11.112;2022-08-30T04:37:40;14.60;99.90
2721;DHT22;1368;49.484;11.112;2022-08-30T04:40:07;14.70;99.90
2721;DHT22;1368;49.484;11.112;2022-08-30T04:42:34;14.70;99.90
2721;DHT22;1368;49.484;11.112;2022-08-30T04:45:11;14.70;99.90
2721;DHT22;1368;49.484;11.112;2022-08-30T04:47:37;14.80;99.90
2721;DHT22;1368;49.484;11.112;2022-08-30T04:50:05;14.80;99.90
2721;DHT22;1368;49.484;11.112;2022-08-30T04:52:31;14.90;99.90
2721;DHT22;1368;49.484;11.112;2022-08-30T04:54:57;15.10;99.90
2721;DHT22;1368;49.484;11.112;2022-08-30T04:57:23;15.40;99.90
2721;DHT22;1368;49.484;11.112;2022-08-30T04:59:49;15.70;99.90
2721;DHT22;1368;49.484;11.112;2022-08-30T05:02:15;15.90;99.90
2721;DHT22;1368;49.484;11.112;2022-08-30T05:04:41;16.20;99.90
2721;DHT22;1368;49.484;11.112;2022-08-30T05:07:26;17.30;99.90
2721;DHT22;1368;49.484;11.112;2022-08-30T05:09:52;17.60;99.90
2721;DHT22;1368;49.484;11.112;2022-08-30T05:12:17;18.00;99.90
2721;DHT22;1368;49.484;11.112;2022-08-30T05:14:43;18.60;99.90
2721;DHT22;1368;49.484;11.112;2022-08-30T05:17:08;19.20;99.90
2721;DHT22;1368;49.484;11.112;2022-08-30T05:19:34;19.40;99.90
2721;DHT22;1368;49.484;11.112;2022-08-30T05:22:00;20.10;99.90
2721;DHT22;1368;49.484;11.112;2022-08-30T05:24:25;20.50;99.90
2721;DHT22;1368;49.484;11.112;2022-08-30T05:26:51;20.80;99.90
2721;DHT22;1368;49.484;11.112;2022-08-30T05:29:17;21.20;99.90
2721;DHT22;1368;49.484;11.112;2022-08-30T05:31:43;21.60;99.90
2721;DHT22;1368;49.484;11.112;2022-08-30T05:34:09;22.00;99.90
2721;DHT22;1368;49.484;11.112;2022-08-30T05:36:36;22.60;99.90
2721;DHT22;1368;49.484;11.112;2022-08-30T05:39:03;23.20;99.90
2721;DHT22;1368;49.484;11.112;2022-08-30T05:41:29;23.70;99.90
2721;DHT22;1368;49.484;11.112;2022-08-30T05:43:57;24.20;99.90
2721;DHT22;1368;49.484;11.112;2022-08-30T05:46:24;24.50;99.90
2721;DHT22;1368;49.484;11.112;2022-08-30T05:48:50;24.70;99.90
2721;DHT22;1368;49.484;11.112;2022-08-30T05:51:19;25.30;99.90
2721;DHT22;1368;49.484;11.112;2022-08-30T05:53:45;25.70;98.80
2721;DHT22;1368;49.484;11.112;2022-08-30T05:56:14;25.60;98.90
2721;DHT22;1368;49.484;11.112;2022-08-30T05:58:40;25.00;99.10
2721;DHT22;1368;49.484;11.112;2022-08-30T06:01:06;24.50;99.80
2721;DHT22;1368;49.484;11.112;2022-08-30T06:03:32;24.90;99.90
2721;DHT22;1368;49.484;11.112;2022-08-30T06:05:59;25.20;98.70
2721;DHT22;1368;49.484;11.112;2022-08-30T06:08:25;25.10;99.20
2721;DHT22;1368;49.484;11.112;2022-08-30T06:10:51;25.90;97.90
2721;DHT22;1368;49.484;11.112;2022-08-30T06:13:16;26.00;97.80
2721;DHT22;1368;49.484;11.112;2022-08-30T06:15:42;25.60;97.90
2721;DHT22;1368;49.484;11.112;2022-08-30T06:18:10;26.10;98.20
2721;DHT22;1368;49.484;11.112;2022-08-30T06:20:43;26.20;97.00
2721;DHT22;1368;49.484;11.112;2022-08-30T06:23:09;26.30;96.90
2721;DHT22;1368;49.484;11.112;2022-08-30T06:25:36;26.50;96.80
2721;DHT22;1368;49.484;11.112;2022-08-30T06:28:04;26.50;96.70
2721;DHT22;1368;49.484;11.112;2022-08-30T06:30:30;26.50;96.50
2721;DHT22;1368;49.484;11.112;2022-08-30T06:32:55;26.50;96.30
2721;DHT22;1368;49.484;11.112;2022-08-30T06:35:21;25.80;97.20
2721;DHT22;1368;49.484;11.112;2022-08-30T06:37:46;25.80;97.70
2721;DHT22;1368;49.484;11.112;2022-08-30T06:40:12;25.70;97.80
2721;DHT22;1368;49.484;11.112;2022-08-30T06:42:38;26.00;97.70
2721;DHT22;1368;49.484;11.112;2022-08-30T06:45:05;26.50;96.90
2721;DHT22;1368;49.484;11.112;2022-08-30T06:47:31;26.60;96.70
2721;DHT22;1368;49.484;11.112;2022-08-30T06:49:57;27.20;96.20
2721;DHT22;1368;49.484;11.112;2022-08-30T06:52:23;27.70;95.30
2721;DHT22;1368;49.484;11.112;2022-08-30T06:54:49;27.50;94.90
2721;DHT22;1368;49.484;11.112;2022-08-30T06:57:15;27.10;95.40
2721;DHT22;1368;49.484;11.112;2022-08-30T06:59:40;27.20;95.10
2721;DHT22;1368;49.484;11.112;2022-08-30T07:02:06;28.00;95.60
2721;DHT22;1368;49.484;11.112;2022-08-30T07:04:32;27.40;95.10
2721;DHT22;1368;49.484;11.112;2022-08-30T07:06:58;28.00;93.80
2721;DHT22;1368;49.484;11.112;2022-08-30T07:09:24;28.00;94.20
2721;DHT22;1368;49.484;11.112;2022-08-30T07:11:50;28.30;93.70
2721;DHT22;1368;49.484;11.112;2022-08-30T07:14:16;28.90;93.00
2721;DHT22;1368;49.484;11.112;2022-08-30T07:16:43;29.30;92.40
2721;DHT22;1368;49.484;11.112;2022-08-30T07:19:08;29.20;92.00
2721;DHT22;1368;49.484;11.112;2022-08-30T07:21:40;28.80;92.70
2721;DHT22;1368;49.484;11.112;2022-08-30T07:24:08;28.90;92.40
2721;DHT22;1368;49.484;11.112;2022-08-30T07:26:46;29.40;92.10
2721;DHT22;1368;49.484;11.112;2022-08-30T07:29:15;29.90;91.60
2721;DHT22;1368;49.484;11.112;2022-08-30T07:31:41;29.50;91.30
2721;DHT22;1368;49.484;11.112;2022-08-30T07:34:07;29.90;90.90
2721;DHT22;1368;49.484;11.112;2022-08-30T07:36:36;30.10;90.80
2721;DHT22;1368;49.484;11.112;2022-08-30T07:39:03;30.40;90.20
2721;DHT22;1368;49.484;11.112;2022-08-30T07:41:31;30.90;89.70
2721;DHT22;1368;49.484;11.112;2022-08-30T07:43:59;31.70;86.20
2721;DHT22;1368;49.484;11.112;2022-08-30T07:46:25;31.90;86.50
2721;DHT22;1368;49.484;11.112;2022-08-30T07:48:52;32.30;83.50
2721;DHT22;1368;49.484;11.112;2022-08-30T07:51:22;32.60;82.10
2721;DHT22;1368;49.484;11.112;2022-08-30T07:53:48;32.30;83.70
2721;DHT22;1368;49.484;11.112;2022-08-30T07:56:14;32.80;82.60
2721;DHT22;1368;49.484;11.112;2022-08-30T07:58:40;33.50;80.90
2721;DHT22;1368;49.484;11.112;2022-08-30T08:01:07;33.50;78.70
2721;DHT22;1368;49.484;11.112;2022-08-30T08:03:33;33.40;77.60
2721;DHT22;1368;49.484;11.112;2022-08-30T08:06:01;33.40;78.50
2721;DHT22;1368;49.484;11.112;2022-08-30T08:08:28;33.90;76.60
2721;DHT22;1368;49.484;11.112;2022-08-30T08:10:54;33.80;78.50
2721;DHT22;1368;49.484;11.112;2022-08-30T08:13:19;34.10;78.60
2721;DHT22;1368;49.484;11.112;2022-08-30T08:15:45;34.30;77.40
2721;DHT22;1368;49.484;11.112;2022-08-30T08:18:11;34.50;75.40
2721;DHT22;1368;49.484;11.112;2022-08-30T08:20:37;34.60;73.60
2721;DHT22;1368;49.484;11.112;2022-08-30T08:23:03;34.30;73.60
2721;DHT22;1368;49.484;11.112;2022-08-30T08:25:29;34.50;72.70
2721;DHT22;1368;49.484;11.112;2022-08-30T08:27:54;35.00;72.30
2721;DHT22;1368;49.484;11.112;2022-08-30T08:30:21;35.40;72.10
2721;DHT22;1368;49.484;11.112;2022-08-30T08:32:48;35.60;72.20
2721;DHT22;1368;49.484;11.112;2022-08-30T08:35:15;35.80;71.80
2721;DHT22;1368;49.484;11.112;2022-08-30T08:37:41;35.70;70.00
2721;DHT22;1368;49.484;11.112;2022-08-30T08:40:09;35.30;69.40
2721;DHT22;1368;49.484;11.112;2022-08-30T08:43:01;35.30;70.80
2721;DHT22;1368;49.484;11.112;2022-08-30T08:45:48;35.40;69.80
2721;DHT22;1368;49.484;11.112;2022-08-30T08:48:27;35.40;67.70
2721;DHT22;1368;49.484;11.112;2022-08-30T08:50:53;34.90;69.10
2721;DHT22;1368;49.484;11.112;2022-08-30T08:53:38;34.90;69.80
2721;DHT22;1368;49.484;11.112;2022-08-30T08:56:12;35.30;70.00
2721;DHT22;1368;49.484;11.112;2022-08-30T08:58:44;35.70;69.50
2721;DHT22;1368;49.484;11.112;2022-08-30T09:01:12;35.50;67.90
2721;DHT22;1368;49.484;11.112;2022-08-30T09:03:40;35.30;67.90
2721;DHT22;1368;49.484;11.112;2022-08-30T09:08:47;35.40;66.40
2721;DHT22;1368;49.484;11.112;2022-08-30T09:11:23;35.70;68.00
2721;DHT22;1368;49.484;11.112;2022-08-30T09:13:50;35.80;67.50
2721;DHT22;1368;49.484;11.112;2022-08-30T09:19:10;34.70;67.10
2721;DHT22;1368;49.484;11.112;2022-08-30T09:21:35;33.60;68.00
2721;DHT22;1368;49.484;11.112;2022-08-30T09:24:03;33.40;69.80
2721;DHT22;1368;49.484;11.112;2022-08-30T09:26:35;33.90;69.60
2721;DHT22;1368;49.484;11.112;2022-08-30T09:29:00;34.50;69.90
2721;DHT22;1368;49.484;11.112;2022-08-30T09:31:29;35.20;67.40
2721;DHT22;1368;49.484;11.112;2022-08-30T09:34:08;35.40;64.10
2721;DHT22;1368;49.484;11.112;2022-08-30T09:36:48;34.90;63.80
2721;DHT22;1368;49.484;11.112;2022-08-30T09:39:29;34.70;65.50
2721;DHT22;1368;49.484;11.112;2022-08-30T09:42:20;35.10;64.40
2721;DHT22;1368;49.484;11.112;2022-08-30T09:44:48;35.60;62.70
2721;DHT22;1368;49.484;11.112;2022-08-30T09:47:28;35.40;62.50
2721;DHT22;1368;49.484;11.112;2022-08-30T09:50:08;35.60;63.50
2721;DHT22;1368;49.484;11.112;2022-08-30T09:52:37;35.50;60.10
2721;DHT22;1368;49.484;11.112;2022-08-30T09:55:26;35.80;58.60
2721;DHT22;1368;49.484;11.112;2022-08-30T10:03:45;34.50;60.30
2721;DHT22;1368;49.484;11.112;2022-08-30T10:06:40;34.00;62.50
2721;DHT22;1368;49.484;11.112;2022-08-30T10:17:21;34.20;60.30
2721;DHT22;1368;49.484;11.112;2022-08-30T10:20:00;34.60;63.40
2721;DHT22;1368;49.484;11.112;2022-08-30T10:22:37;34.70;60.40
2721;DHT22;1368;49.484;11.112;2022-08-30T10:25:11;34.70;60.20
2721;DHT22;1368;49.484;11.112;2022-08-30T10:27:45;34.50;58.10
2721;DHT22;1368;49.484;11.112;2022-08-30T10:30:14;34.30;58.20
2721;DHT22;1368;49.484;11.112;2022-08-30T10:35:35;33.10;60.40
2721;DHT22;1368;49.484;11.112;2022-08-30T10:38:11;33.30;62.10
2721;DHT22;1368;49.484;11.112;2022-08-30T10:40:41;33.80;60.10
2721;DHT22;1368;49.484;11.112;2022-08-30T10:43:35;33.80;58.80
2721;DHT22;1368;49.484;11.112;2022-08-30T10:46:08;34.00;58.40
2721;DHT22;1368;49.484;11.112;2022-08-30T10:48:38;34.00;59.20
2721;DHT22;1368;49.484;11.112;2022-08-30T10:54:00;33.40;58.10
2721;DHT22;1368;49.484;11.112;2022-08-30T10:56:28;32.80;58.30
2721;DHT22;1368;49.484;11.112;2022-08-30T10:58:56;33.00;57.90
2721;DHT22;1368;49.484;11.112;2022-08-30T11:07:36;32.10;54.30
2721;DHT22;1368;49.484;11.112;2022-08-30T11:13:03;31.50;54.00
2721;DHT22;1368;49.484;11.112;2022-08-30T11:15:36;31.60;58.00
2721;DHT22;1368;49.484;11.112;2022-08-30T11:18:16;32.10;55.00
2721;DHT22;1368;49.484;11.112;2022-08-30T11:20:48;32.00;54.70
2721;DHT22;1368;49.484;11.112;2022-08-30T11:26:05;31.90;53.00
2721;DHT22;1368;49.484;11.112;2022-08-30T11:41:45;32.50;54.50
2721;DHT22;1368;49.484;11.112;2022-08-30T11:46:50;32.20;54.20
2721;DHT22;1368;49.484;11.112;2022-08-30T12:00:35;30.80;54.00
2721;DHT22;1368;49.484;11.112;2022-08-30T12:03:07;30.50;55.00
2721;DHT22;1368;49.484;11.112;2022-08-30T12:05:54;30.70;56.20
2721;DHT22;1368;49.484;11.112;2022-08-30T12:16:37;31.20;55.50
2721;DHT22;1368;49.484;11.112;2022-08-30T12:19:24;31.30;56.40
2721;DHT22;1368;49.484;11.112;2022-08-30T12:21:58;30.80;56.40
2721;DHT22;1368;49.484;11.112;2022-08-30T12:24:36;30.90;57.20
2721;DHT22;1368;49.484;11.112;2022-08-30T12:27:26;31.10;55.40
2721;DHT22;1368;49.484;11.112;2022-08-30T12:30:01;31.20;56.20
2721;DHT22;1368;49.484;11.112;2022-08-30T12:32:28;31.40;56.50
2721;DHT22;1368;49.484;11.112;2022-08-30T12:35:01;31.20;56.60
2721;DHT22;1368;49.484;11.112;2022-08-30T12:37:35;30.80;56.50
2721;DHT22;1368;49.484;11.112;2022-08-30T12:40:17;30.20;55.00
2721;DHT22;1368;49.484;11.112;2022-08-30T12:42:58;29.80;55.20
2721;DHT22;1368;49.484;11.112;2022-08-30T12:45:27;29.20;55.40
2721;DHT22;1368;49.484;11.112;2022-08-30T12:50:27;29.40;56.30
2721;DHT22;1368;49.484;11.112;2022-08-30T12:53:05;29.40;55.70
2721;DHT22;1368;49.484;11.112;2022-08-30T12:55:35;29.70;57.60
2721;DHT22;1368;49.484;11.112;2022-08-30T12:58:04;30.00;54.80
2721;DHT22;1368;49.484;11.112;2022-08-30T13:00:41;30.20;55.00
2721;DHT22;1368;49.484;11.112;2022-08-30T13:05:52;29.60;54.40
2721;DHT22;1368;49.484;11.112;2022-08-30T13:08:23;29.60;54.50
2721;DHT22;1368;49.484;11.112;2022-08-30T13:11:01;29.50;53.30
2721;DHT22;1368;49.484;11.112;2022-08-30T13:13:47;29.40;54.90
2721;DHT22;1368;49.484;11.112;2022-08-30T13:18:46;29.90;56.90
2721;DHT22;1368;49.484;11.112;2022-08-30T13:23:47;30.30;55.80
2721;DHT22;1368;49.484;11.112;2022-08-30T13:26:12;30.30;54.60
2721;DHT22;1368;49.484;11.112;2022-08-30T13:28:44;29.70;54.90
2721;DHT22;1368;49.484;11.112;2022-08-30T13:31:09;29.10;55.50
2721;DHT22;1368;49.484;11.112;2022-08-30T13:33:35;29.00;55.90
2721;DHT22;1368;49.484;11.112;2022-08-30T13:36:01;29.20;56.10
2721;DHT22;1368;49.484;11.112;2022-08-30T13:38:26;29.50;55.30
2721;DHT22;1368;49.484;11.112;2022-08-30T13:40:52;29.80;55.20
2721;DHT22;1368;49.484;11.112;2022-08-30T13:43:18;29.60;54.30
2721;DHT22;1368;49.484;11.112;2022-08-30T13:45:43;29.30;54.50
2721;DHT22;1368;49.484;11.112;2022-08-30T13:48:09;29.20;54.60
2721;DHT22;1368;49.484;11.112;2022-08-30T13:50:35;29.20;55.40
2721;DHT22;1368;49.484;11.112;2022-08-30T13:53:01;29.40;54.10
2721;DHT22;1368;49.484;11.112;2022-08-30T13:55:27;29.30;53.20
2721;DHT22;1368;49.484;11.112;2022-08-30T13:57:52;29.20;55.50
2721;DHT22;1368;49.484;11.112;2022-08-30T14:00:18;29.30;53.90
2721;DHT22;1368;49.484;11.112;2022-08-30T14:02:47;29.70;54.00
2721;DHT22;1368;49.484;11.112;2022-08-30T14:05:13;30.10;53.30
2721;DHT22;1368;49.484;11.112;2022-08-30T14:07:39;30.50;52.70
2721;DHT22;1368;49.484;11.112;2022-08-30T14:10:07;30.50;53.10
2721;DHT22;1368;49.484;11.112;2022-08-30T14:12:33;30.40;54.30
2721;DHT22;1368;49.484;11.112;2022-08-30T14:14:58;29.70;53.70
2721;DHT22;1368;49.484;11.112;2022-08-30T14:17:25;29.60;54.70
2721;DHT22;1368;49.484;11.112;2022-08-30T14:19:54;29.20;54.90
2721;DHT22;1368;49.484;11.112;2022-08-30T14:22:20;29.20;55.30
2721;DHT22;1368;49.484;11.112;2022-08-30T14:24:45;29.20;55.50
2721;DHT22;1368;49.484;11.112;2022-08-30T14:27:11;29.70;56.20
2721;DHT22;1368;49.484;11.112;2022-08-30T14:29:36;29.20;56.20
2721;DHT22;1368;49.484;11.112;2022-08-30T14:32:02;29.00;56.30
2721;DHT22;1368;49.484;11.112;2022-08-30T14:34:28;29.30;56.40
2721;DHT22;1368;49.484;11.112;2022-08-30T14:36:53;29.40;56.50
2721;DHT22;1368;49.484;11.112;2022-08-30T14:39:21;29.50;56.40
2721;DHT22;1368;49.484;11.112;2022-08-30T14:41:50;29.30;57.00
2721;DHT22;1368;49.484;11.112;2022-08-30T14:44:18;29.40;57.20
2721;DHT22;1368;49.484;11.112;2022-08-30T14:46:44;29.60;57.50
2721;DHT22;1368;49.484;11.112;2022-08-30T14:49:11;29.60;56.10
2721;DHT22;1368;49.484;11.112;2022-08-30T14:51:37;29.80;56.10
2721;DHT22;1368;49.484;11.112;2022-08-30T14:54:03;30.30;57.50
2721;DHT22;1368;49.484;11.112;2022-08-30T14:56:28;30.40;56.30
2721;DHT22;1368;49.484;11.112;2022-08-30T14:58:54;30.70;56.40
2721;DHT22;1368;49.484;11.112;2022-08-30T15:01:25;30.50;56.40
2721;DHT22;1368;49.484;11.112;2022-08-30T15:03:51;30.10;57.10
2721;DHT22;1368;49.484;11.112;2022-08-30T15:06:17;29.60;56.50
2721;DHT22;1368;49.484;11.112;2022-08-30T15:08:42;29.00;57.10
2721;DHT22;1368;49.484;11.112;2022-08-30T15:11:13;28.80;58.10
2721;DHT22;1368;49.484;11.112;2022-08-30T15:13:40;28.60;57.50
2721;DHT22;1368;49.484;11.112;2022-08-30T15:16:15;28.60;58.20
2721;DHT22;1368;49.484;11.112;2022-08-30T15:18:41;28.50;58.10
2721;DHT22;1368;49.484;11.112;2022-08-30T15:21:07;28.40;58.10
2721;DHT22;1368;49.484;11.112;2022-08-30T15:23:33;28.50;58.50
2721;DHT22;1368;49.484;11.112;2022-08-30T15:25:58;28.50;57.70
2721;DHT22;1368;49.484;11.112;2022-08-30T15:28:24;28.80;57.80
2721;DHT22;1368;49.484;11.112;2022-08-30T15:30:50;28.60;58.20
2721;DHT22;1368;49.484;11.112;2022-08-30T15:33:15;28.80;58.20
2721;DHT22;1368;49.484;11.112;2022-08-30T15:35:41;28.90;57.70
2721;DHT22;1368;49.484;11.112;2022-08-30T15:38:07;29.00;58.30
2721;DHT22;1368;49.484;11.112;2022-08-30T15:40:33;28.90;57.20
2721;DHT22;1368;49.484;11.112;2022-08-30T15:43:01;28.90;57.20
2721;DHT22;1368;49.484;11.112;2022-08-30T15:45:28;29.00;56.90
2721;DHT22;1368;49.484;11.112;2022-08-30T15:47:53;28.80;56.60
2721;DHT22;1368;49.484;11.112;2022-08-30T15:50:19;28.90;57.00
2721;DHT22;1368;49.484;11.112;2022-08-30T15:52:45;29.00;57.40
2721;DHT22;1368;49.484;11.112;2022-08-30T15:55:10;28.80;57.40
2721;DHT22;1368;49.484;11.112;2022-08-30T15:57:36;28.40;58.20
2721;DHT22;1368;49.484;11.112;2022-08-30T16:00:04;28.20;58.30
2721;DHT22;1368;49.484;11.112;2022-08-30T16:02:30;28.30;58.70
2721;DHT22;1368;49.484;11.112;2022-08-30T16:04:56;28.40;59.10
2721;DHT22;1368;49.484;11.112;2022-08-30T16:07:22;28.30;58.70
2721;DHT22;1368;49.484;11.112;2022-08-30T16:09:47;28.30;58.80
2721;DHT22;1368;49.484;11.112;2022-08-30T16:12:13;28.40;58.90
2721;DHT22;1368;49.484;11.112;2022-08-30T16:14:39;28.30;58.90
2721;DHT22;1368;49.484;11.112;2022-08-30T16:17:04;27.80;59.80
2721;DHT22;1368;49.484;11.112;2022-08-30T16:19:30;27.40;60.50
2721;DHT22;1368;49.484;11.112;2022-08-30T16:21:56;27.30;61.20
2721;DHT22;1368;49.484;11.112;2022-08-30T16:24:22;27.50;61.70
2721;DHT22;1368;49.484;11.112;2022-08-30T16:26:49;27.60;60.80
2721;DHT22;1368;49.484;11.112;2022-08-30T16:29:14;27.50;60.80
2721;DHT22;1368;49.484;11.112;2022-08-30T16:31:42;27.70;61.20
2721;DHT22;1368;49.484;11.112;2022-08-30T16:34:09;27.70;61.00
2721;DHT22;1368;49.484;11.112;2022-08-30T16:36:35;27.70;61.20
2721;DHT22;1368;49.484;11.112;2022-08-30T16:39:03;27.60;61.00
2721;DHT22;1368;49.484;11.112;2022-08-30T16:41:30;27.70;60.80
2721;DHT22;1368;49.484;11.112;2022-08-30T16:43:56;27.30;60.90
2721;DHT22;1368;49.484;11.112;2022-08-30T16:46:23;27.50;61.60
2721;DHT22;1368;49.484;11.112;2022-08-30T16:48:49;26.40;61.30
2721;DHT22;1368;49.484;11.112;2022-08-30T16:51:18;26.90;61.60
2721;DHT22;1368;49.484;11.112;2022-08-30T16:53:45;27.10;62.00
2721;DHT22;1368;49.484;11.112;2022-08-30T16:56:14;27.20;62.00
2721;DHT22;1368;49.484;11.112;2022-08-30T16:58:41;27.30;62.00
2721;DHT22;1368;49.484;11.112;2022-08-30T17:01:07;27.20;62.70
2721;DHT22;1368;49.484;11.112;2022-08-30T17:03:33;27.00;63.60
2721;DHT22;1368;49.484;11.112;2022-08-30T17:05:58;26.80;63.70
2721;DHT22;1368;49.484;11.112;2022-08-30T17:08:24;26.80;64.20
2721;DHT22;1368;49.484;11.112;2022-08-30T17:10:50;26.40;65.10
2721;DHT22;1368;49.484;11.112;2022-08-30T17:13:16;26.20;66.10